sensor_id;sensor_type;location;lat;lon;timestamp;pressure;altitude;pressure_sealevel;temperature;humidity
14067;BME280;7108;42.684;23.350;2023-04-09T00:00:38;95559.69;;;7.83;100.00
14067;BME280;7108;42.684;23.350;2023-04-09T00:03:03;95568.19;;;7.85;100.00
14067;BME280;7108;42.684;23.350;2023-04-09T00:05:29;95561.25;;;7.84;100.00
14067;BME280;7108;42.684;23.350;2023-04-09T00:07:54;95566.03;;;7.79;100.00
14067;BME280;7108;42.684;23.350;2023-04-09T00:10:20;95576.88;;;7.82;100.00
14067;BME280;7108;42.684;23.350;2023-04-09T00:12:45;95574.00;;;7.87;100.00
14067;BME280;7108;42.684;23.350;2023-04-09T00:15:11;95566.91;;;7.83;100.00
14067;BME280;7108;42.684;23.350;2023-04-09T00:17:37;95569.94;;;7.81;100.00
14067;BME280;7108;42.684;23.350;2023-04-09T00:20:02;95580.59;;;7.90;100.00
14067;BME280;7108;42.684;23.350;2023-04-09T00:22:28;95582.63;;;7.93;100.00
14067;BME280;7108;42.684;23.350;2023-04-09T00:24:54;95574.13;;;7.91;100.00
14067;BME280;7108;42.684;23.350;2023-04-09T00:27:19;95570.06;;;7.85;100.00
14067;BME280;7108;42.684;23.350;2023-04-09T00:29:45;95582.63;;;7.93;100.00
14067;BME280;7108;42.684;23.350;2023-04-09T00:32:11;95585.63;;;7.91;100.00
14067;BME280;7108;42.684;23.350;2023-04-09T00:34:37;95581.38;;;7.90;100.00
14067;BME280;7108;42.684;23.350;2023-04-09T00:37:03;95584.28;;;7.85;100.00
14067;BME280;7108;42.684;23.350;2023-04-09T00:39:28;95572.97;;;7.80;100.00
14067;BME280;7108;42.684;23.350;2023-04-09T00:41:55;95574.06;;;7.79;100.00
14067;BME280;7108;42.684;23.350;2023-04-09T00:44:22;95574.63;;;7.73;100.00
14067;BME280;7108;42.684;23.350;2023-04-09T00:46:47;95574.75;;;7.76;100.00
14067;BME280;7108;42.684;23.350;2023-04-09T00:49:12;95574.97;;;7.83;100.00
14067;BME280;7108;42.684;23.350;2023-04-09T00:51:39;95569.16;;;7.81;100.00
14067;BME280;7108;42.684;23.350;2023-04-09T00:54:04;95569.03;;;7.78;100.00
14067;BME280;7108;42.684;23.350;2023-04-09T00:56:30;95570.41;;;7.83;100.00
14067;BME280;7108;42.684;23.350;2023-04-09T00:58:56;95566.03;;;7.79;100.00
14067;BME280;7108;42.684;23.350;2023-04-09T01:01:21;95571.97;;;7.84;100.00
14067;BME280;7108;42.684;23.350;2023-04-09T01:03:46;95576.25;;;7.85;100.00
14067;BME280;7108;42.684;23.350;2023-04-09T01:06:22;95579.13;;;7.92;100.00
14067;BME280;7108;42.684;23.350;2023-04-09T01:14:31;95571.50;;;8.15;100.00
14067;BME280;7108;42.684;23.350;2023-04-09T01:17:11;95577.44;;;8.20;100.00
14067;BME280;7108;42.684;23.350;2023-04-09T01:20:02;95573.66;;;8.21;100.00
14067;BME280;7108;42.684;23.350;2023-04-09T01:22:52;95579.56;;;8.27;100.00
14067;BME280;7108;42.684;23.350;2023-04-09T01:25:32;95574.78;;;8.32;100.00
14067;BME280;7108;42.684;23.350;2023-04-09T01:30:33;95567.53;;;8.12;100.00
14067;BME280;7108;42.684;23.350;2023-04-09T01:32:59;95571.50;;;8.15;100.00
14067;BME280;7108;42.684;23.350;2023-04-09T01:35:25;95580.91;;;8.21;100.00
14067;BME280;7108;42.684;23.350;2023-04-09T01:37:53;95576.13;;;8.26;100.00
14067;BME280;7108;42.684;23.350;2023-04-09T01:40:19;95584.72;;;8.32;100.00
14067;BME280;7108;42.684;23.350;2023-04-09T01:42:45;95579.69;;;8.30;100.00
14067;BME280;7108;42.684;23.350;2023-04-09T01:45:13;95578.34;;;8.24;100.00
14067;BME280;7108;42.684;23.350;2023-04-09T01:47:40;95582.72;;;8.29;100.00
14067;BME280;7108;42.684;23.350;2023-04-09T01:50:06;95582.59;;;8.25;100.00
14067;BME280;7108;42.684;23.350;2023-04-09T01:52:32;95580.13;;;8.20;100.00
14067;BME280;7108;42.684;23.350;2023-04-09T01:54:58;95572.63;;;8.26;100.00
14067;BME280;7108;42.684;23.350;2023-04-09T01:57:23;95574.44;;;8.22;100.00
14067;BME280;7108;42.684;23.350;2023-04-09T01:59:48;95566.59;;;8.17;100.00
14067;BME280;7108;42.684;23.350;2023-04-09T02:02:27;95578.28;;;8.12;100.00
14067;BME280;7108;42.684;23.350;2023-04-09T02:04:59;95573.34;;;8.02;100.00
14067;BME280;7108;42.684;23.350;2023-04-09T02:07:50;95576.50;;;8.04;100.00
14067;BME280;7108;42.684;23.350;2023-04-09T02:10:19;95576.72;;;7.99;100.00
14067;BME280;7108;42.684;23.350;2023-04-09T02:12:49;95579.06;;;8.01;100.00
14067;BME280;7108;42.684;23.350;2023-04-09T02:15:15;95580.97;;;8.00;100.00
14067;BME280;7108;42.684;23.350;2023-04-09T02:17:41;95572.78;;;7.97;100.00
14067;BME280;7108;42.684;23.350;2023-04-09T02:20:06;95577.94;;;8.02;100.00
14067;BME280;7108;42.684;23.350;2023-04-09T02:22:32;95557.59;;;8.01;100.00
14067;BME280;7108;42.684;23.350;2023-04-09T02:24:57;95570.38;;;8.16;100.00
14067;BME280;7108;42.684;23.350;2023-04-09T02:27:23;95576.97;;;8.18;100.00
14067;BME280;7108;42.684;23.350;2023-04-09T02:29:49;95569.63;;;8.15;100.00
14067;BME280;7108;42.684;23.350;2023-04-09T02:32:14;95574.50;;;8.13;100.00
14067;BME280;7108;42.684;23.350;2023-04-09T02:34:40;95573.88;;;8.16;100.00
14067;BME280;7108;42.684;23.350;2023-04-09T02:37:06;95565.66;;;8.13;100.00
14067;BME280;7108;42.684;23.350;2023-04-09T02:39:32;95576.34;;;8.21;100.00
14067;BME280;7108;42.684;23.350;2023-04-09T02:41:57;95567.81;;;8.19;100.00
14067;BME280;7108;42.684;23.350;2023-04-09T02:44:23;95561.00;;;8.22;100.00
14067;BME280;7108;42.684;23.350;2023-04-09T02:46:49;95567.16;;;8.22;100.00
14067;BME280;7108;42.684;23.350;2023-04-09T02:49:15;95571.75;;;8.22;100.00
14067;BME280;7108;42.684;23.350;2023-04-09T02:51:41;95581.72;;;8.21;100.00
14067;BME280;7108;42.684;23.350;2023-04-09T02:54:06;95574.50;;;8.13;100.00
14067;BME280;7108;42.684;23.350;2023-04-09T02:56:31;95572.34;;;8.07;100.00
14067;BME280;7108;42.684;23.350;2023-04-09T02:58:57;95564.19;;;8.03;100.00
14067;BME280;7108;42.684;23.350;2023-04-09T03:01:22;95568.09;;;8.06;100.00
14067;BME280;7108;42.684;23.350;2023-04-09T03:03:48;95566.88;;;8.03;100.00
14067;BME280;7108;42.684;23.350;2023-04-09T03:06:13;95560.16;;;7.97;100.00
14067;BME280;7108;42.684;23.350;2023-04-09T03:08:38;95565.50;;;7.97;100.00
14067;BME280;7108;42.684;23.350;2023-04-09T03:11:04;95553.78;;;8.02;100.00
14067;BME280;7108;42.684;23.350;2023-04-09T03:13:29;95564.97;;;8.04;100.00
14067;BME280;7108;42.684;23.350;2023-04-09T03:15:55;95555.88;;;7.96;100.00
14067;BME280;7108;42.684;23.350;2023-04-09T03:18:20;95571.13;;;8.04;100.00
14067;BME280;7108;42.684;23.350;2023-04-09T03:20:46;95552.91;;;7.98;100.00
14067;BME280;7108;42.684;23.350;2023-04-09T03:23:12;95568.44;;;8.04;100.00
14067;BME280;7108;42.684;23.350;2023-04-09T03:25:37;95566.09;;;8.03;100.00
14067;BME280;7108;42.684;23.350;2023-04-09T03:28:02;95564.75;;;7.97;100.00
14067;BME280;7108;42.684;23.350;2023-04-09T03:30:28;95564.19;;;8.03;100.00
14067;BME280;7108;42.684;23.350;2023-04-09T03:32:54;95564.53;;;8.02;100.00
14067;BME280;7108;42.684;23.350;2023-04-09T03:35:19;95557.47;;;7.97;100.00
14067;BME280;7108;42.684;23.350;2023-04-09T03:37:45;95565.97;;;7.99;100.00
14067;BME280;7108;42.684;23.350;2023-04-09T03:40:11;95563.72;;;7.89;100.00
14067;BME280;7108;42.684;23.350;2023-04-09T03:42:37;95568.53;;;7.96;100.00
14067;BME280;7108;42.684;23.350;2023-04-09T03:45:03;95563.50;;;7.94;100.00
14067;BME280;7108;42.684;23.350;2023-04-09T03:47:29;95577.25;;;7.93;100.00
14067;BME280;7108;42.684;23.350;2023-04-09T03:49:54;95559.25;;;7.93;100.00
14067;BME280;7108;42.684;23.350;2023-04-09T03:52:20;95574.13;;;7.91;100.00
14067;BME280;7108;42.684;23.350;2023-04-09T03:54:45;95581.81;;;7.92;100.00
14067;BME280;7108;42.684;23.350;2023-04-09T03:57:11;95577.22;;;7.81;100.00
14067;BME280;7108;42.684;23.350;2023-04-09T03:59:36;95585.69;;;7.83;100.00
14067;BME280;7108;42.684;23.350;2023-04-09T04:02:02;95573.72;;;7.80;100.00
14067;BME280;7108;42.684;23.350;2023-04-09T04:04:27;95573.84;;;7.84;100.00
14067;BME280;7108;42.684;23.350;2023-04-09T04:06:52;95569.16;;;7.81;100.00
14067;BME280;7108;42.684;23.350;2023-04-09T04:09:18;95582.25;;;7.82;100.00
14067;BME280;7108;42.684;23.350;2023-04-09T04:11:43;95582.38;;;7.86;100.00
14067;BME280;7108;42.684;23.350;2023-04-09T04:14:09;95566.69;;;7.76;100.00
14067;BME280;7108;42.684;23.350;2023-04-09T04:16:34;95587.06;;;7.89;100.00
14067;BME280;7108;42.684;23.350;2023-04-09T04:19:00;95574.97;;;7.71;100.00
14067;BME280;7108;42.684;23.350;2023-04-09T04:21:25;95578.47;;;7.83;100.00
14067;BME280;7108;42.684;23.350;2023-04-09T04:23:51;95584.81;;;7.79;100.00
14067;BME280;7108;42.684;23.350;2023-04-09T04:26:17;95588.06;;;7.84;100.00
14067;BME280;7108;42.684;23.350;2023-04-09T04:28:43;95586.16;;;7.85;100.00
14067;BME280;7108;42.684;23.350;2023-04-09T04:31:09;95589.09;;;7.92;100.00
14067;BME280;7108;42.684;23.350;2023-04-09T04:33:37;95591.78;;;7.92;100.00
14067;BME280;7108;42.684;23.350;2023-04-09T04:36:05;95590.66;;;7.93;100.00
14067;BME280;7108;42.684;23.350;2023-04-09T04:38:31;95591.69;;;7.68;100.00
14067;BME280;7108;42.684;23.350;2023-04-09T04:40:56;95600.00;;;7.75;100.00
14067;BME280;7108;42.684;23.350;2023-04-09T04:43:22;95600.88;;;7.67;100.00
14067;BME280;7108;42.684;23.350;2023-04-09T04:45:47;95600.66;;;7.72;100.00
14067;BME280;7108;42.684;23.350;2023-04-09T04:48:12;95592.50;;;7.80;100.00
14067;BME280;7108;42.684;23.350;2023-04-09T04:50:38;95599.78;;;7.80;100.00
14067;BME280;7108;42.684;23.350;2023-04-09T04:53:03;95602.00;;;7.78;100.00
14067;BME280;7108;42.684;23.350;2023-04-09T04:55:29;95601.69;;;7.80;100.00
14067;BME280;7108;42.684;23.350;2023-04-09T04:57:54;95600.38;;;7.85;100.00
14067;BME280;7108;42.684;23.350;2023-04-09T05:00:20;95604.94;;;7.85;100.00
14067;BME280;7108;42.684;23.350;2023-04-09T05:02:45;95601.50;;;7.84;100.00
14067;BME280;7108;42.684;23.350;2023-04-09T05:05:11;95596.41;;;7.71;100.00
14067;BME280;7108;42.684;23.350;2023-04-09T05:07:36;95605.34;;;7.75;100.00
14067;BME280;7108;42.684;23.350;2023-04-09T05:10:01;95602.00;;;7.78;100.00
14067;BME280;7108;42.684;23.350;2023-04-09T05:12:30;95601.91;;;7.75;100.00
14067;BME280;7108;42.684;23.350;2023-04-09T05:14:56;95608.44;;;7.85;100.00
14067;BME280;7108;42.684;23.350;2023-04-09T05:17:22;95606.66;;;8.01;100.00
14067;BME280;7108;42.684;23.350;2023-04-09T05:19:52;95613.84;;;8.09;100.00
14067;BME280;7108;42.684;23.350;2023-04-09T05:22:18;95613.09;;;8.21;100.00
14067;BME280;7108;42.684;23.350;2023-04-09T05:24:44;95609.22;;;8.30;100.00
14067;BME280;7108;42.684;23.350;2023-04-09T05:27:09;95607.44;;;8.34;100.00
14067;BME280;7108;42.684;23.350;2023-04-09T05:29:35;95603.88;;;8.42;100.00
14067;BME280;7108;42.684;23.350;2023-04-09T05:32:00;95597.03;;;8.33;100.00
14067;BME280;7108;42.684;23.350;2023-04-09T05:34:25;95598.69;;;8.25;100.00
14067;BME280;7108;42.684;23.350;2023-04-09T05:36:52;95605.41;;;8.19;100.00
14067;BME280;7108;42.684;23.350;2023-04-09T05:39:17;95602.59;;;8.16;100.00
14067;BME280;7108;42.684;23.350;2023-04-09T05:41:42;95603.81;;;8.18;100.00
14067;BME280;7108;42.684;23.350;2023-04-09T05:44:10;95606.16;;;8.20;100.00
14067;BME280;7108;42.684;23.350;2023-04-09T05:46:35;95604.41;;;8.24;100.00
14067;BME280;7108;42.684;23.350;2023-04-09T05:49:01;95612.38;;;8.32;100.00
14067;BME280;7108;42.684;23.350;2023-04-09T05:51:26;95608.31;;;8.38;100.00
14067;BME280;7108;42.684;23.350;2023-04-09T05:53:52;95604.53;;;8.39;100.00
14067;BME280;7108;42.684;23.350;2023-04-09T05:56:17;95598.38;;;8.39;100.00
14067;BME280;7108;42.684;23.350;2023-04-09T05:58:43;95598.72;;;8.49;100.00
14067;BME280;7108;42.684;23.350;2023-04-09T06:01:09;95613.16;;;8.68;100.00
14067;BME280;7108;42.684;23.350;2023-04-09T06:03:34;95605.44;;;8.91;100.00
14067;BME280;7108;42.684;23.350;2023-04-09T06:06:00;95597.94;;;8.96;100.00
14067;BME280;7108;42.684;23.350;2023-04-09T06:08:25;95597.03;;;9.04;100.00
14067;BME280;7108;42.684;23.350;2023-04-09T06:10:51;95592.63;;;9.12;100.00
14067;BME280;7108;42.684;23.350;2023-04-09T06:13:16;95600.56;;;9.20;100.00
14067;BME280;7108;42.684;23.350;2023-04-09T06:15:41;95590.38;;;9.25;100.00
14067;BME280;7108;42.684;23.350;2023-04-09T06:18:07;95603.59;;;9.30;100.00
14067;BME280;7108;42.684;23.350;2023-04-09T06:20:32;95595.59;;;9.34;100.00
14067;BME280;7108;42.684;23.350;2023-04-09T06:22:58;95602.31;;;9.40;100.00
14067;BME280;7108;42.684;23.350;2023-04-09T06:25:23;95593.75;;;9.50;100.00
14067;BME280;7108;42.684;23.350;2023-04-09T06:27:49;95598.66;;;9.60;100.00
14067;BME280;7108;42.684;23.350;2023-04-09T06:30:14;95591.53;;;9.52;100.00
14067;BME280;7108;42.684;23.350;2023-04-09T06:32:40;95600.13;;;9.57;100.00
14067;BME280;7108;42.684;23.350;2023-04-09T06:35:05;95589.44;;;9.45;100.00
14067;BME280;7108;42.684;23.350;2023-04-09T06:37:33;95596.41;;;9.34;100.00
14067;BME280;7108;42.684;23.350;2023-04-09T06:39:58;95604.59;;;9.26;100.00
14067;BME280;7108;42.684;23.350;2023-04-09T06:42:24;95604.59;;;9.26;100.00
14067;BME280;7108;42.684;23.350;2023-04-09T06:44:50;95608.06;;;9.26;100.00
14067;BME280;7108;42.684;23.350;2023-04-09T06:47:16;95606.59;;;9.29;100.00
14067;BME280;7108;42.684;23.350;2023-04-09T06:49:41;95616.44;;;9.37;100.00
14067;BME280;7108;42.684;23.350;2023-04-09T06:52:07;95615.75;;;9.40;100.00
14067;BME280;7108;42.684;23.350;2023-04-09T06:54:32;95611.50;;;9.39;100.00
14067;BME280;7108;42.684;23.350;2023-04-09T06:56:57;95607.91;;;9.47;100.00
14067;BME280;7108;42.684;23.350;2023-04-09T06:59:23;95601.72;;;9.46;100.00
14067;BME280;7108;42.684;23.350;2023-04-09T07:01:48;95614.28;;;9.42;100.00
14067;BME280;7108;42.684;23.350;2023-04-09T07:04:14;95607.44;;;9.45;100.00
14067;BME280;7108;42.684;23.350;2023-04-09T07:06:39;95610.19;;;9.33;100.00
14067;BME280;7108;42.684;23.350;2023-04-09T07:09:05;95597.53;;;9.33;100.00
14067;BME280;7108;42.684;23.350;2023-04-09T07:11:31;95599.97;;;9.38;100.00
14067;BME280;7108;42.684;23.350;2023-04-09T07:13:57;95608.16;;;9.42;100.00
14067;BME280;7108;42.684;23.350;2023-04-09T07:16:22;95607.56;;;9.48;100.00
14067;BME280;7108;42.684;23.350;2023-04-09T07:18:48;95612.91;;;9.60;100.00
14067;BME280;7108;42.684;23.350;2023-04-09T07:21:13;95598.16;;;9.70;100.00
14067;BME280;7108;42.684;23.350;2023-04-09T07:23:39;95602.69;;;9.66;100.00
14067;BME280;7108;42.684;23.350;2023-04-09T07:26:05;95614.31;;;9.70;100.00
14067;BME280;7108;42.684;23.350;2023-04-09T07:28:31;95601.09;;;9.65;100.00
14067;BME280;7108;42.684;23.350;2023-04-09T07:30:57;95609.19;;;9.65;100.00
14067;BME280;7108;42.684;23.350;2023-04-09T07:33:24;95605.81;;;9.68;100.00
14067;BME280;7108;42.684;23.350;2023-04-09T07:35:49;95608.06;;;9.66;100.00
14067;BME280;7108;42.684;23.350;2023-04-09T07:38:15;95614.13;;;9.63;100.00
14067;BME280;7108;42.684;23.350;2023-04-09T07:40:40;95606.06;;;9.63;100.00
14067;BME280;7108;42.684;23.350;2023-04-09T07:43:06;95608.84;;;9.66;100.00
14067;BME280;7108;42.684;23.350;2023-04-09T07:45:31;95613.66;;;9.73;100.00
14067;BME280;7108;42.684;23.350;2023-04-09T07:47:57;95619.75;;;9.85;100.00
14067;BME280;7108;42.684;23.350;2023-04-09T07:50:22;95628.34;;;9.90;100.00
14067;BME280;7108;42.684;23.350;2023-04-09T07:52:48;95634.53;;;9.91;100.00
14067;BME280;7108;42.684;23.350;2023-04-09T07:55:13;95627.06;;;9.84;100.00
14067;BME280;7108;42.684;23.350;2023-04-09T07:57:39;95623.03;;;9.78;100.00
14067;BME280;7108;42.684;23.350;2023-04-09T08:00:05;95626.75;;;9.74;100.00
14067;BME280;7108;42.684;23.350;2023-04-09T08:02:31;95622.38;;;9.70;100.00
14067;BME280;7108;42.684;23.350;2023-04-09T08:04:56;95628.00;;;9.65;100.00
14067;BME280;7108;42.684;23.350;2023-04-09T08:07:22;95640.56;;;9.61;100.00
14067;BME280;7108;42.684;23.350;2023-04-09T08:09:47;95631.75;;;9.60;100.00
14067;BME280;7108;42.684;23.350;2023-04-09T08:12:12;95632.50;;;9.61;100.00
14067;BME280;7108;42.684;23.350;2023-04-09T08:14:38;95640.34;;;9.66;100.00
14067;BME280;7108;42.684;23.350;2023-04-09T08:17:03;95632.97;;;9.63;100.00
14067;BME280;7108;42.684;23.350;2023-04-09T08:19:29;95635.94;;;9.73;100.00
14067;BME280;7108;42.684;23.350;2023-04-09T08:21:54;95637.50;;;9.74;100.00
14067;BME280;7108;42.684;23.350;2023-04-09T08:24:20;95637.16;;;9.76;100.00
14067;BME280;7108;42.684;23.350;2023-04-09T08:26:46;95638.06;;;9.79;100.00
14067;BME280;7108;42.684;23.350;2023-04-09T08:29:12;95644.31;;;9.83;100.00
14067;BME280;7108;42.684;23.350;2023-04-09T08:31:38;95648.66;;;10.00;100.00
14067;BME280;7108;42.684;23.350;2023-04-09T08:34:04;95649.63;;;10.07;100.00
14067;BME280;7108;42.684;23.350;2023-04-09T08:36:30;95631.38;;;10.01;100.00
14067;BME280;7108;42.684;23.350;2023-04-09T08:38:57;95639.69;;;9.96;100.00
14067;BME280;7108;42.684;23.350;2023-04-09T08:41:25;95647.44;;;9.97;100.00
14067;BME280;7108;42.684;23.350;2023-04-09T08:43:55;95636.66;;;9.97;100.00
14067;BME280;7108;42.684;23.350;2023-04-09T08:46:21;95640.03;;;9.94;100.00
14067;BME280;7108;42.684;23.350;2023-04-09T08:48:48;95634.94;;;10.05;100.00
14067;BME280;7108;42.684;23.350;2023-04-09T08:51:15;95635.41;;;9.95;100.00
14067;BME280;7108;42.684;23.350;2023-04-09T08:53:45;95637.63;;;10.05;100.00
14067;BME280;7108;42.684;23.350;2023-04-09T08:56:12;95627.28;;;10.19;100.00
14067;BME280;7108;42.684;23.350;2023-04-09T08:58:44;95614.03;;;10.14;100.00
14067;BME280;7108;42.684;23.350;2023-04-09T09:01:24;95624.38;;;10.27;100.00
14067;BME280;7108;42.684;23.350;2023-04-09T09:06:20;95624.16;;;10.47;100.00
14067;BME280;7108;42.684;23.350;2023-04-09T09:08:58;95608.34;;;10.61;100.00
14067;BME280;7108;42.684;23.350;2023-04-09T09:11:25;95621.91;;;10.65;100.00
14067;BME280;7108;42.684;23.350;2023-04-09T09:13:57;95609.81;;;10.59;100.00
14067;BME280;7108;42.684;23.350;2023-04-09T09:16:23;95604.09;;;10.45;100.00
14067;BME280;7108;42.684;23.350;2023-04-09T09:18:48;95608.59;;;10.56;100.00
14067;BME280;7108;42.684;23.350;2023-04-09T09:21:15;95599.13;;;10.62;100.00
14067;BME280;7108;42.684;23.350;2023-04-09T09:23:42;95610.72;;;10.63;100.00
14067;BME280;7108;42.684;23.350;2023-04-09T09:26:15;95605.22;;;10.59;100.00
14067;BME280;7108;42.684;23.350;2023-04-09T09:28:43;95601.72;;;10.59;100.00
14067;BME280;7108;42.684;23.350;2023-04-09T09:31:11;95610.16;;;10.57;100.00
14067;BME280;7108;42.684;23.350;2023-04-09T09:33:36;95592.72;;;10.67;100.00
14067;BME280;7108;42.684;23.350;2023-04-09T09:36:02;95603.19;;;11.03;100.00
14067;BME280;7108;42.684;23.350;2023-04-09T09:38:28;95587.41;;;11.20;100.00
14067;BME280;7108;42.684;23.350;2023-04-09T09:40:54;95601.25;;;11.37;100.00
14067;BME280;7108;42.684;23.350;2023-04-09T09:43:20;95588.09;;;11.51;100.00
14067;BME280;7108;42.684;23.350;2023-04-09T09:45:46;95575.91;;;11.76;100.00
14067;BME280;7108;42.684;23.350;2023-04-09T09:48:12;95584.50;;;11.81;100.00
14067;BME280;7108;42.684;23.350;2023-04-09T09:50:40;95574.53;;;11.85;100.00
14067;BME280;7108;42.684;23.350;2023-04-09T09:53:07;95585.25;;;12.01;100.00
14067;BME280;7108;42.684;23.350;2023-04-09T09:55:40;95573.88;;;12.11;100.00
14067;BME280;7108;42.684;23.350;2023-04-09T09:58:25;95561.34;;;12.22;100.00
14067;BME280;7108;42.684;23.350;2023-04-09T10:00:52;95564.34;;;12.61;100.00
14067;BME280;7108;42.684;23.350;2023-04-09T10:03:26;95560.78;;;12.80;100.00
14067;BME280;7108;42.684;23.350;2023-04-09T10:05:54;95561.69;;;12.65;100.00
14067;BME280;7108;42.684;23.350;2023-04-09T10:08:21;95558.88;;;12.80;100.00
14067;BME280;7108;42.684;23.350;2023-04-09T10:10:48;95560.00;;;13.02;100.00
14067;BME280;7108;42.684;23.350;2023-04-09T10:13:25;95559.31;;;13.08;100.00
14067;BME280;7108;42.684;23.350;2023-04-09T10:15:55;95553.69;;;12.94;100.00
14067;BME280;7108;42.684;23.350;2023-04-09T10:18:22;95553.50;;;13.06;100.00
14067;BME280;7108;42.684;23.350;2023-04-09T10:21:16;95550.94;;;13.16;100.00
14067;BME280;7108;42.684;23.350;2023-04-09T10:23:47;95556.00;;;13.21;100.00
14067;BME280;7108;42.684;23.350;2023-04-09T10:26:13;95549.03;;;13.17;100.00
14067;BME280;7108;42.684;23.350;2023-04-09T10:28:39;95545.19;;;13.21;100.00
14067;BME280;7108;42.684;23.350;2023-04-09T10:31:05;95538.00;;;13.32;100.00
14067;BME280;7108;42.684;23.350;2023-04-09T10:33:32;95546.50;;;13.31;100.00
14067;BME280;7108;42.684;23.350;2023-04-09T10:36:09;95533.84;;;13.38;100.00
14067;BME280;7108;42.684;23.350;2023-04-09T10:38:45;95536.38;;;13.28;100.00
14067;BME280;7108;42.684;23.350;2023-04-09T10:41:14;95529.50;;;13.34;100.00
14067;BME280;7108;42.684;23.350;2023-04-09T10:43:41;95539.41;;;13.52;100.00
14067;BME280;7108;42.684;23.350;2023-04-09T10:46:25;95540.16;;;13.49;100.00
14067;BME280;7108;42.684;23.350;2023-04-09T10:49:26;95519.66;;;13.48;100.00
14067;BME280;7108;42.684;23.350;2023-04-09T10:52:10;95522.66;;;13.73;100.00
14067;BME280;7108;42.684;23.350;2023-04-09T10:54:40;95512.59;;;13.73;100.00
14067;BME280;7108;42.684;23.350;2023-04-09T10:57:13;95511.88;;;13.76;100.00
14067;BME280;7108;42.684;23.350;2023-04-09T10:59:41;95505.94;;;13.67;100.00
14067;BME280;7108;42.684;23.350;2023-04-09T11:07:44;95505.88;;;13.60;100.00
14067;BME280;7108;42.684;23.350;2023-04-09T11:10:11;95488.88;;;13.63;100.00
14067;BME280;7108;42.684;23.350;2023-04-09T11:12:36;95493.63;;;13.73;100.00
14067;BME280;7108;42.684;23.350;2023-04-09T11:15:02;95492.81;;;13.69;100.00
14067;BME280;7108;42.684;23.350;2023-04-09T11:17:28;95495.56;;;13.73;100.00
14067;BME280;7108;42.684;23.350;2023-04-09T11:19:54;95500.84;;;13.62;100.00
14067;BME280;7108;42.684;23.350;2023-04-09T11:22:20;95499.94;;;13.51;100.00
14067;BME280;7108;42.684;23.350;2023-04-09T11:24:45;95497.19;;;13.44;100.00
14067;BME280;7108;42.684;23.350;2023-04-09T11:27:11;95486.31;;;13.11;100.00
14067;BME280;7108;42.684;23.350;2023-04-09T11:29:37;95500.78;;;12.97;100.00
14067;BME280;7108;42.684;23.350;2023-04-09T11:32:03;95490.94;;;12.85;100.00
14067;BME280;7108;42.684;23.350;2023-04-09T11:34:30;95493.22;;;12.83;100.00
14067;BME280;7108;42.684;23.350;2023-04-09T11:36:55;95479.91;;;12.71;100.00
14067;BME280;7108;42.684;23.350;2023-04-09T11:39:23;95489.47;;;12.65;100.00
14067;BME280;7108;42.684;23.350;2023-04-09T11:41:48;95487.50;;;12.62;100.00
14067;BME280;7108;42.684;23.350;2023-04-09T11:44:14;95463.28;;;12.43;100.00
14067;BME280;7108;42.684;23.350;2023-04-09T11:46:40;95480.38;;;12.51;100.00
14067;BME280;7108;42.684;23.350;2023-04-09T11:49:06;95482.84;;;12.59;100.00
14067;BME280;7108;42.684;23.350;2023-04-09T11:51:32;95479.66;;;12.54;100.00
14067;BME280;7108;42.684;23.350;2023-04-09T11:54:04;95479.34;;;12.59;100.00
14067;BME280;7108;42.684;23.350;2023-04-09T11:56:29;95475.06;;;12.58;100.00
14067;BME280;7108;42.684;23.350;2023-04-09T11:58:55;95458.81;;;12.54;100.00
14067;BME280;7108;42.684;23.350;2023-04-09T12:01:21;95470.97;;;12.67;100.00
14067;BME280;7108;42.684;23.350;2023-04-09T12:03:55;95460.66;;;12.73;98.91
14067;BME280;7108;42.684;23.350;2023-04-09T12:06:21;95452.41;;;12.66;91.91
14067;BME280;7108;42.684;23.350;2023-04-09T12:08:54;95459.59;;;12.81;88.30
14067;BME280;7108;42.684;23.350;2023-04-09T12:11:20;95461.53;;;12.84;92.39
14067;BME280;7108;42.684;23.350;2023-04-09T12:13:58;95458.25;;;12.94;90.57
14067;BME280;7108;42.684;23.350;2023-04-09T12:16:23;95452.53;;;12.99;87.18
14067;BME280;7108;42.684;23.350;2023-04-09T12:18:48;95456.06;;;13.03;83.49
14067;BME280;7108;42.684;23.350;2023-04-09T12:21:14;95454.50;;;13.02;84.02
14067;BME280;7108;42.684;23.350;2023-04-09T12:23:41;95459.59;;;13.07;96.51
14067;BME280;7108;42.684;23.350;2023-04-09T12:26:06;95449.91;;;13.06;98.15
14067;BME280;7108;42.684;23.350;2023-04-09T12:28:32;95451.47;;;13.07;98.14
14067;BME280;7108;42.684;23.350;2023-04-09T12:30:57;95442.59;;;13.06;98.28
14067;BME280;7108;42.684;23.350;2023-04-09T12:33:23;95452.22;;;13.07;94.19
14067;BME280;7108;42.684;23.350;2023-04-09T12:35:49;95427.13;;;13.07;93.25
14067;BME280;7108;42.684;23.350;2023-04-09T12:38:14;95432.31;;;13.18;98.00
14067;BME280;7108;42.684;23.350;2023-04-09T12:40:39;95438.91;;;13.21;95.31
14067;BME280;7108;42.684;23.350;2023-04-09T12:43:05;95443.56;;;13.24;84.32
14067;BME280;7108;42.684;23.350;2023-04-09T12:45:31;95435.34;;;13.13;87.09
14067;BME280;7108;42.684;23.350;2023-04-09T12:47:57;95440.78;;;13.17;88.27
14067;BME280;7108;42.684;23.350;2023-04-09T12:50:22;95434.22;;;13.18;90.13
14067;BME280;7108;42.684;23.350;2023-04-09T12:52:48;95431.56;;;13.21;85.80
14067;BME280;7108;42.684;23.350;2023-04-09T12:55:14;95440.09;;;13.23;84.97
14067;BME280;7108;42.684;23.350;2023-04-09T12:57:42;95435.72;;;13.15;86.70
14067;BME280;7108;42.684;23.350;2023-04-09T13:00:08;95424.50;;;13.13;90.12
14067;BME280;7108;42.684;23.350;2023-04-09T13:02:34;95429.22;;;13.20;92.18
14067;BME280;7108;42.684;23.350;2023-04-09T13:05:00;95429.59;;;13.18;87.41
14067;BME280;7108;42.684;23.350;2023-04-09T13:07:25;95432.97;;;13.12;89.48
14067;BME280;7108;42.684;23.350;2023-04-09T13:09:54;95423.66;;;13.06;90.55
14067;BME280;7108;42.684;23.350;2023-04-09T13:12:19;95424.38;;;13.03;96.00